createdAt,value
2023-05-05T08:26:59.310Z,100941.81
2023-05-05T08:29:02.184Z,100933.69
2023-05-05T08:31:05.917Z,100935.16
2023-05-05T08:33:08.325Z,100937.38
2023-05-05T08:35:12.016Z,100937.94
2023-05-05T08:37:14.686Z,100945.09
2023-05-05T08:39:17.020Z,100944.75
2023-05-05T08:41:19.971Z,100952.66
2023-05-05T08:43:23.980Z,100957.22
2023-05-05T08:45:28.024Z,100954.47
2023-05-05T08:47:32.297Z,100973.56
2023-05-05T08:49:43.997Z,100973.34
2023-05-05T08:51:47.073Z,100971.63
2023-05-05T08:53:56.220Z,100978.31
2023-05-05T08:56:00.948Z,100980.00
2023-05-05T08:58:06.296Z,100982.34
2023-05-05T09:00:10.962Z,100973.88
2023-05-05T09:02:14.899Z,100976.00
2023-05-05T09:04:19.206Z,100979.53
2023-05-05T09:06:23.439Z,100974.25
2023-05-05T09:08:26.370Z,100970.97
2023-05-05T09:10:29.476Z,100972.50
2023-05-05T09:12:32.793Z,100967.91
2023-05-05T09:16:55.146Z,100978.97
2023-05-05T09:19:04.974Z,100974.62
2023-05-05T09:21:27.803Z,100970.47
2023-05-05T09:23:30.164Z,100965.03
2023-05-05T09:25:33.109Z,100966.41
2023-05-05T09:27:41.286Z,100962.72
2023-05-05T09:29:49.114Z,100957.19
2023-05-05T09:32:11.236Z,100969.59
2023-05-05T09:34:15.992Z,100954.31
2023-05-05T09:36:18.556Z,100950.69
2023-05-05T09:38:23.420Z,100954.66
2023-05-05T09:40:26.051Z,100950.84
2023-05-05T09:42:28.492Z,100950.69
2023-05-05T09:44:36.091Z,100945.72
2023-05-05T09:46:49.179Z,100940.09
2023-05-05T09:48:51.535Z,100932.75
2023-05-05T09:50:55.345Z,100944.44
2023-05-05T09:52:59.804Z,100954.28
2023-05-05T09:55:02.318Z,100962.81
2023-05-05T09:57:04.897Z,100959.00
2023-05-05T09:59:11.910Z,100956.47
2023-05-05T10:01:23.526Z,100953.81
2023-05-05T10:03:26.492Z,100948.06
2023-05-05T10:05:29.053Z,100961.75
2023-05-05T10:07:31.382Z,100956.56
2023-05-05T10:09:34.027Z,100948.97
2023-05-05T10:11:36.965Z,100951.56
2023-05-05T10:13:42.189Z,100947.75
2023-05-05T10:15:47.222Z,100945.87
2023-05-05T10:18:05.901Z,100962.13
2023-05-05T10:20:10.850Z,100951.16
2023-05-05T10:22:13.988Z,100954.84
2023-05-05T10:24:25.534Z,100950.78
2023-05-05T10:26:34.413Z,100942.44
2023-05-05T10:28:51.687Z,100945.22
2023-05-05T10:30:57.162Z,100954.91
2023-05-05T10:35:32.967Z,100967.34
2023-05-05T10:37:37.744Z,100958.31
2023-05-05T10:39:40.114Z,100952.25
2023-05-05T10:41:43.183Z,100947.03
2023-05-05T10:43:46.932Z,100938.06
2023-05-05T10:45:50.067Z,100941.22
2023-05-05T10:47:55.322Z,100946.06
2023-05-05T10:50:07.592Z,100937.50
2023-05-05T10:52:36.097Z,100932.75
2023-05-05T10:54:45.776Z,100931.16
2023-05-05T10:56:48.988Z,100929.22
2023-05-05T10:58:59.635Z,100926.97
2023-05-05T11:01:04.484Z,100931.72
2023-05-05T11:03:19.458Z,100926.69
2023-05-05T11:05:22.563Z,100931.06
2023-05-05T11:07:26.110Z,100927.12
2023-05-05T11:09:29.315Z,100930.62
2023-05-05T11:12:04.497Z,100928.66
2023-05-05T11:14:21.394Z,100918.63
2023-05-05T11:16:45.697Z,100923.94
2023-05-05T11:18:48.109Z,100931.94
2023-05-05T11:20:50.886Z,100940.53
2023-05-05T11:23:02.474Z,100950.06
2023-05-05T11:25:36.859Z,100950.06
2023-05-05T11:28:07.230Z,100965.78
2023-05-05T11:30:10.818Z,100986.91
2023-05-05T11:32:15.605Z,100996.84
2023-05-05T11:34:28.402Z,100985.50
2023-05-05T11:36:40.832Z,100982.59
2023-05-05T11:39:09.671Z,100983.22
2023-05-05T11:41:30.846Z,100990.16
2023-05-05T11:43:33.483Z,100985.28
2023-05-05T11:45:36.016Z,100971.50
2023-05-05T11:47:39.060Z,100973.16
2023-05-05T11:49:41.344Z,100973.38
2023-05-05T11:51:44.121Z,100957.19
2023-05-05T11:53:48.488Z,100959.47
2023-05-05T11:56:06.418Z,100954.53
2023-05-05T11:58:19.035Z,100956.53
2023-05-05T12:00:32.406Z,100964.28
2023-05-05T12:02:35.509Z,100966.91
2023-05-05T12:04:39.599Z,100968.25
2023-05-05T12:06:43.308Z,100958.31
2023-05-05T12:08:45.910Z,100964.97
2023-05-05T12:10:48.244Z,100955.94
2023-05-05T12:12:52.541Z,100952.50
2023-05-05T12:14:57.225Z,100943.03
2023-05-05T12:17:06.653Z,100939.47
2023-05-05T12:19:11.767Z,100928.28
2023-05-05T12:21:18.040Z,100936.38
2023-05-05T12:23:20.611Z,100926.62
2023-05-05T12:25:23.081Z,100931.59
2023-05-05T12:27:27.441Z,100937.97
2023-05-05T12:29:29.837Z,100936.03
2023-05-05T12:31:36.030Z,100924.16
2023-05-05T12:33:40.364Z,100915.75
2023-05-05T12:35:42.684Z,100915.37
2023-05-05T12:37:45.493Z,100901.72
2023-05-05T12:39:49.609Z,100895.69
2023-05-05T12:41:51.937Z,100896.25
2023-05-05T12:43:58.995Z,100900.28
2023-05-05T12:46:06.262Z,100904.41
2023-05-05T12:48:23.927Z,100884.16
2023-05-05T12:50:31.534Z,100872.19
2023-05-05T12:52:45.030Z,100872.88
2023-05-05T12:54:58.103Z,100865.03
2023-05-05T12:57:11.513Z,100857.06
2023-05-05T12:59:23.211Z,100849.97
2023-05-05T13:01:25.846Z,100844.34
2023-05-05T13:03:28.423Z,100835.56
2023-05-05T13:05:36.306Z,100836.38
2023-05-05T13:07:51.023Z,100834.31
2023-05-05T13:10:07.616Z,100842.78
2023-05-05T13:12:13.347Z,100841.78
2023-05-05T13:14:15.615Z,100836.22
2023-05-05T13:16:18.046Z,100827.37
2023-05-05T13:18:20.767Z,100828.09
2023-05-05T13:20:23.063Z,100821.94
2023-05-05T13:22:25.555Z,100819.56
2023-05-05T13:24:38.563Z,100816.91
2023-05-05T13:26:49.642Z,100813.22
2023-05-05T13:28:51.998Z,100811.28
2023-05-05T13:30:55.892Z,100801.75
2023-05-05T13:32:58.278Z,100795.06
2023-05-05T13:35:00.614Z,100800.75
2023-05-05T13:37:03.383Z,100798.81
2023-05-05T13:39:05.810Z,100785.25
2023-05-05T13:41:08.089Z,100789.69
2023-05-05T13:43:10.846Z,100784.34
2023-05-05T13:45:14.196Z,100791.53
2023-05-05T13:47:16.574Z,100788.31
2023-05-05T13:49:20.148Z,100774.62
2023-05-05T13:51:22.466Z,100785.16
2023-05-05T13:53:25.194Z,100775.72
2023-05-05T13:55:31.009Z,100774.22
2023-05-05T13:57:33.319Z,100772.87
2023-05-05T13:59:35.864Z,100771.19
2023-05-05T14:01:38.573Z,100771.38
2023-05-05T14:03:41.251Z,100771.06
2023-05-05T14:05:43.544Z,100772.19
2023-05-05T14:07:48.800Z,100762.09
2023-05-05T14:09:51.303Z,100764.50
2023-05-05T14:11:53.607Z,100767.56
2023-05-05T14:13:55.922Z,100762.37
2023-05-05T14:15:58.599Z,100773.72
2023-05-05T14:18:01.045Z,100766.19
2023-05-05T14:20:03.704Z,100765.53
2023-05-05T14:22:06.596Z,100766.50
2023-05-05T14:24:08.988Z,100764.19
2023-05-05T14:26:11.441Z,100760.72
2023-05-05T14:28:14.279Z,100757.38
2023-05-05T14:30:17.193Z,100762.19
2023-05-05T14:32:19.557Z,100743.84
2023-05-05T14:34:22.297Z,100747.88
2023-05-05T14:36:24.622Z,100746.84
2023-05-05T14:38:27.028Z,100745.50
2023-05-05T14:40:31.116Z,100741.44
2023-05-05T14:42:34.473Z,100738.25
2023-05-05T14:44:36.794Z,100734.56
2023-05-05T14:46:39.538Z,100733.59
2023-05-05T14:48:41.889Z,100733.06
2023-05-05T14:50:46.378Z,100730.25
2023-05-05T14:52:48.981Z,100736.31
2023-05-05T14:54:51.274Z,100739.16
2023-05-05T14:56:53.687Z,100743.00
2023-05-05T14:58:56.335Z,100744.78
2023-05-05T15:00:59.056Z,100745.16
2023-05-05T15:03:01.645Z,100753.97
2023-05-05T15:05:05.220Z,100738.75
2023-05-05T15:07:07.434Z,100735.09
2023-05-05T15:09:09.753Z,100736.16
2023-05-05T15:11:12.434Z,100731.66
2023-05-05T15:13:15.241Z,100733.94
2023-05-05T15:15:17.811Z,100728.25
2023-05-05T15:17:20.477Z,100730.09
2023-05-05T15:19:22.824Z,100721.44
2023-05-05T15:21:25.134Z,100730.56
2023-05-05T15:23:27.748Z,100721.13
2023-05-05T15:25:30.344Z,100721.13
2023-05-05T15:27:32.775Z,100722.13
2023-05-05T15:29:35.376Z,100713.28
2023-05-05T15:31:37.926Z,100717.63
2023-05-05T15:33:40.545Z,100710.88
2023-05-05T15:35:43.354Z,100712.94
2023-05-05T15:37:45.997Z,100713.22
2023-05-05T15:39:48.405Z,100707.31
2023-05-05T15:43:53.098Z,100702.16
2023-05-05T15:45:55.421Z,100698.56
2023-05-05T15:47:58.009Z,100703.81
2023-05-05T15:50:00.307Z,100700.56
2023-05-05T15:52:02.601Z,100692.13
2023-05-05T15:54:05.635Z,100686.88
2023-05-05T15:56:08.176Z,100686.94
2023-05-05T15:58:10.381Z,100687.75
2023-05-05T16:00:33.275Z,100693.47
2023-05-05T16:02:36.089Z,100698.09
2023-05-05T16:04:38.483Z,100685.75
2023-05-05T16:06:41.003Z,100684.94
2023-05-05T16:08:43.697Z,100684.13
2023-05-05T16:10:46.202Z,100683.44
2023-05-05T16:12:48.718Z,100681.16
2023-05-05T16:14:51.400Z,100668.16
2023-05-05T16:16:54.631Z,100658.84
2023-05-05T16:18:56.971Z,100670.66
2023-05-05T16:20:59.741Z,100667.53
2023-05-05T16:23:02.094Z,100670.47
2023-05-05T16:25:04.924Z,100660.81
2023-05-05T16:27:07.672Z,100661.88
2023-05-05T16:29:10.514Z,100662.47
2023-05-05T16:31:13.598Z,100666.34
2023-05-05T16:33:16.269Z,100673.06
2023-05-05T16:35:18.870Z,100664.69
2023-05-05T16:37:21.228Z,100670.97
2023-05-05T16:39:24.097Z,100662.56
2023-05-05T16:41:26.955Z,100659.00
2023-05-05T16:43:29.417Z,100667.72
2023-05-05T16:45:32.450Z,100668.22
2023-05-05T16:47:34.750Z,100668.97
2023-05-05T16:49:37.027Z,100669.34
2023-05-05T16:51:39.548Z,100669.34
2023-05-05T16:53:42.006Z,100661.06
2023-05-05T16:55:44.400Z,100663.91
2023-05-05T16:57:47.955Z,100649.94
2023-05-05T16:59:50.602Z,100653.56
2023-05-05T17:01:52.965Z,100655.69
2023-05-05T17:03:57.534Z,100658.22
2023-05-05T17:06:00.000Z,100650.91
2023-05-05T17:08:03.186Z,100670.47
2023-05-05T17:10:06.522Z,100665.97
2023-05-05T17:12:08.896Z,100659.19
2023-05-05T17:14:11.152Z,100657.59
2023-05-05T17:16:13.911Z,100664.75
2023-05-05T17:18:16.281Z,100670.50
2023-05-05T17:20:18.626Z,100656.88
2023-05-05T17:22:21.257Z,100661.13
2023-05-05T17:24:24.154Z,100659.75
2023-05-05T17:26:26.468Z,100647.59
2023-05-05T17:28:29.226Z,100657.87
2023-05-05T17:30:31.749Z,100657.28
2023-05-05T17:32:34.118Z,100648.13
2023-05-05T17:34:36.686Z,100647.59
2023-05-05T17:36:39.114Z,100641.19
2023-05-05T17:38:41.426Z,100650.72
2023-05-05T17:40:44.526Z,100655.94
2023-05-05T17:42:47.289Z,100668.56
2023-05-05T17:44:50.180Z,100650.84
2023-05-05T17:46:52.855Z,100637.06
2023-05-05T17:48:55.651Z,100654.84
2023-05-05T17:50:57.994Z,100661.66
2023-05-05T17:53:00.618Z,100647.44
2023-05-05T17:55:02.973Z,100656.97
2023-05-05T17:57:05.263Z,100661.84
2023-05-05T17:59:08.933Z,100663.25
2023-05-05T18:01:23.397Z,100651.56
2023-05-05T18:03:26.508Z,100640.66
2023-05-05T18:05:28.976Z,100645.44
2023-05-05T18:07:31.859Z,100651.91
2023-05-05T18:09:34.570Z,100651.19
2023-05-05T18:11:37.515Z,100642.91
2023-05-05T18:13:39.861Z,100648.66
2023-05-05T18:15:42.605Z,100652.28
2023-05-05T18:17:45.024Z,100649.50
2023-05-05T18:19:49.140Z,100647.97
2023-05-05T18:21:53.075Z,100654.81
2023-05-05T18:24:01.751Z,100651.91
2023-05-05T18:26:10.368Z,100656.06
2023-05-05T18:28:17.648Z,100662.78
2023-05-05T18:30:20.142Z,100668.22
2023-05-05T18:32:22.467Z,100664.88
2023-05-05T18:34:25.052Z,100669.06
2023-05-05T18:36:27.923Z,100661.53
2023-05-05T18:38:31.615Z,100660.69
2023-05-05T18:40:34.327Z,100664.75
2023-05-05T18:42:36.755Z,100666.16
2023-05-05T18:44:39.054Z,100651.34
2023-05-05T18:46:43.233Z,100657.34
2023-05-05T18:48:45.612Z,100648.94
2023-05-05T18:50:48.966Z,100654.81
2023-05-05T18:52:51.672Z,100655.19
2023-05-05T18:54:53.992Z,100648.50
2023-05-05T18:56:56.566Z,100648.03
2023-05-05T18:58:59.300Z,100648.69
2023-05-05T19:01:01.833Z,100653.72
2023-05-05T19:03:04.255Z,100649.81
2023-05-05T19:05:08.394Z,100646.31
2023-05-05T19:09:33.844Z,100646.38
2023-05-05T19:11:36.563Z,100643.50
2023-05-05T19:15:46.476Z,100645.09
2023-05-05T19:17:49.222Z,100641.88
2023-05-05T19:19:51.579Z,100642.97
2023-05-05T19:21:53.879Z,100632.72
2023-05-05T19:23:56.515Z,100638.97
2023-05-05T19:25:58.922Z,100634.28
2023-05-05T19:28:01.188Z,100632.31
2023-05-05T19:30:05.319Z,100628.44
2023-05-05T19:32:07.789Z,100621.47
2023-05-05T19:34:10.105Z,100635.72
2023-05-05T19:36:12.741Z,100622.88
2023-05-05T19:38:15.749Z,100638.84
2023-05-05T19:40:18.029Z,100634.81
2023-05-05T19:42:20.732Z,100631.94
2023-05-05T19:44:23.082Z,100628.56
2023-05-05T19:46:26.712Z,100633.78
2023-05-05T19:48:29.417Z,100636.03
2023-05-05T19:50:31.814Z,100637.78
2023-05-05T19:52:36.575Z,100629.41
2023-05-05T19:54:39.100Z,100620.25
2023-05-05T19:56:41.548Z,100620.84
2023-05-05T19:59:00.855Z,100630.44
2023-05-05T20:01:03.561Z,100627.16
2023-05-05T20:03:06.914Z,100637.88
2023-05-05T20:05:11.504Z,100640.13
2023-05-05T20:07:13.767Z,100635.88
2023-05-05T20:09:17.274Z,100635.97
2023-05-05T20:11:21.216Z,100626.13
2023-05-05T20:13:23.645Z,100624.72
2023-05-05T20:15:26.358Z,100623.66
2023-05-05T20:17:28.754Z,100625.16
2023-05-05T20:19:31.365Z,100610.81
2023-05-05T20:21:34.551Z,100618.56
2023-05-05T20:23:37.142Z,100608.72
2023-05-05T20:25:39.433Z,100604.41
2023-05-05T20:27:42.692Z,100613.72
2023-05-05T20:29:45.043Z,100602.97
2023-05-05T20:31:48.059Z,100602.81
2023-05-05T20:33:50.748Z,100619.84
2023-05-05T20:35:53.115Z,100615.72
2023-05-05T20:37:55.416Z,100612.03
2023-05-05T20:39:58.331Z,100606.91
2023-05-05T20:42:01.251Z,100602.13
2023-05-05T20:44:03.583Z,100613.66
2023-05-05T20:46:07.186Z,100617.78
2023-05-05T20:48:11.316Z,100621.13
2023-05-05T20:50:13.986Z,100615.53
2023-05-05T20:52:16.690Z,100612.84
2023-05-05T20:54:19.005Z,100596.44
2023-05-05T20:56:21.826Z,100600.50
2023-05-05T20:58:24.340Z,100594.16
2023-05-05T21:00:27.160Z,100597.78
2023-05-05T21:02:29.844Z,100599.00
2023-05-05T21:04:32.541Z,100592.66
2023-05-05T21:06:34.819Z,100589.13
2023-05-05T21:08:37.198Z,100588.53
2023-05-05T21:10:39.847Z,100584.50
2023-05-05T21:12:42.182Z,100576.09
2023-05-05T21:14:45.649Z,100590.69
2023-05-05T21:16:48.855Z,100586.28
2023-05-05T21:18:51.307Z,100593.69
2023-05-05T21:20:53.749Z,100587.13
2023-05-05T21:22:59.429Z,100592.41
2023-05-05T21:25:12.608Z,100590.69
2023-05-05T21:27:15.058Z,100586.28
2023-05-05T21:29:17.645Z,100587.72
2023-05-05T21:31:22.415Z,100588.47
2023-05-05T21:33:24.855Z,100585.47
2023-05-05T21:35:27.402Z,100589.78
2023-05-05T21:37:29.793Z,100579.59
2023-05-05T21:39:35.442Z,100575.72
2023-05-05T21:41:38.162Z,100571.41
2023-05-05T21:43:40.468Z,100564.78
2023-05-05T21:45:42.959Z,100565.47
2023-05-05T21:47:45.632Z,100553.28
2023-05-05T21:49:47.937Z,100545.47
2023-05-05T21:51:50.291Z,100532.72
2023-05-05T21:53:52.919Z,100543.06
2023-05-05T21:55:55.500Z,100523.69
2023-05-05T21:57:57.799Z,100499.13
2023-05-05T22:00:00.342Z,100506.66
2023-05-05T22:02:02.689Z,100512.84
2023-05-05T22:04:05.415Z,100513.59
2023-05-05T22:06:07.988Z,100522.66
2023-05-05T22:08:11.226Z,100506.00
2023-05-05T22:10:13.974Z,100505.88
2023-05-05T22:12:16.848Z,100513.66
2023-05-05T22:14:19.173Z,100501.56
2023-05-05T22:16:21.850Z,100507.56
2023-05-05T22:18:24.232Z,100499.66
2023-05-05T22:20:26.705Z,100493.06
2023-05-05T22:22:29.439Z,100494.37
2023-05-05T22:24:31.887Z,100488.47
2023-05-05T22:26:34.422Z,100505.88
2023-05-05T22:28:37.036Z,100497.59
2023-05-05T22:30:39.394Z,100486.19
2023-05-05T22:32:43.518Z,100490.63
2023-05-05T22:34:46.242Z,100500.34
2023-05-05T22:36:49.236Z,100500.84
2023-05-05T22:38:51.601Z,100508.41
2023-05-05T22:40:54.210Z,100507.19
2023-05-05T22:42:56.432Z,100516.88
2023-05-05T22:44:58.812Z,100511.59
2023-05-05T22:47:01.595Z,100511.37
2023-05-05T22:49:03.942Z,100514.56
2023-05-05T22:51:06.569Z,100514.69
2023-05-05T22:53:09.165Z,100518.31
2023-05-05T22:55:14.057Z,100512.78
2023-05-05T22:57:16.541Z,100502.34
2023-05-05T22:59:19.082Z,100502.75
2023-05-05T23:01:21.556Z,100491.78
2023-05-05T23:03:24.161Z,100481.09
2023-05-05T23:05:26.803Z,100469.69
2023-05-05T23:07:29.278Z,100449.63
2023-05-05T23:09:31.586Z,100436.06
2023-05-05T23:11:34.184Z,100433.87
2023-05-05T23:13:36.454Z,100429.22
2023-05-05T23:15:39.031Z,100431.25
2023-05-05T23:17:41.635Z,100421.75
2023-05-05T23:19:47.288Z,100416.16
2023-05-05T23:21:53.553Z,100413.09
2023-05-05T23:23:56.532Z,100408.12
2023-05-05T23:25:58.814Z,100401.47
2023-05-05T23:28:01.168Z,100413.97
2023-05-05T23:30:03.978Z,100428.28
2023-05-05T23:32:06.521Z,100426.63
2023-05-05T23:34:08.905Z,100430.19
2023-05-05T23:36:11.458Z,100420.41
2023-05-05T23:38:13.728Z,100421.97
2023-05-05T23:40:16.013Z,100423.84
2023-05-05T23:42:18.594Z,100409.22
2023-05-05T23:44:20.804Z,100409.34
